< < Back
Terminal Aerodrome Forecast


Current Version              Previous Versions:   1  2  3  4  5  6  7  8  9  

Terminal Aerodrome Forecast

581
FTUS44 KBMX 171700
TAFMGM
TAF
KMGM 171720Z 1718/1818 34006KT P6SM SCT045
     FM180000 VRB03KT P6SM SKC=

Latest METAR

134
SAUS80 KWBC 180100
MTRMGM
METAR KMGM 180053Z 00000KT 10SM CLR 27/20 A2990 RMK AO2 SLP123
T02720200


USA.gov is the U.S. government's official web portal to all federal, state and local government web resources and services.